• Join FlightAware (Why Join?)
  • Login
  • US Flag 
02:59AM EDT


 

Airport Tracker/Info


-or-


 

Live Flight TrackerFlight Track Log ✈ PDT4373 ✈ 09-Oct-2013 ✈ KBGM - KPHL

Flight Track Log - Related Links

Times and Time Zones

All times are in EDT time to prevent confusion due to time zone crossing. See the PDT4373 flight status page for this flight to view local times or setup timezone preferences in your user account.

Time Position Orientation Groundspeed Altitude Reporting Facility
EDT Latitude Longitude Course Direction KTS MPH feet Rate Location/Type
12:16PM 42.0215 -75.9184 180° South  Level Estimated
12:17PM 41.9574 -75.9220 182° South  Level FlightAware Approximate
12:18PM 41.8933 -75.9255 182° South  Level FlightAware Approximate
12:19PM 41.8312 -75.9038 154° Southeast  Level Estimated
12:20PM 41.7692 -75.8822 160° South  Level Estimated
12:21PM 41.7071 -75.8606 159° South  Level Estimated
12:22PM 41.6445 -75.8422 168° South  Level FlightAware Approximate
12:23PM 41.5818 -75.8239 168° South  Level FlightAware Approximate
12:24PM 41.5198 -75.8022 153° Southeast  Level Estimated
12:25PM 41.4577 -75.7805 161° South  Level Estimated
12:26PM 41.3978 -75.7500 159° South  Level FlightAware Approximate
12:27PM 41.3379 -75.7195 159° South  Level FlightAware Approximate
12:28PM 41.2757 -75.6987 162° South  Level Estimated
12:29PM 41.2154 -75.6697 160° South  Level FlightAware Approximate
12:30PM 41.1551 -75.6408 160° South  Level FlightAware Approximate
12:31PM 41.0947 -75.6119 160° South  Level FlightAware Approximate
12:32PM 41.0323 -75.5926 159° South  Level Estimated
12:33PM 40.9698 -75.5733 163° South  Level Estimated
12:34PM 40.9096 -75.5439 160° South  Level FlightAware Approximate
12:35PM 40.8495 -75.5146 160° South  Level FlightAware Approximate
12:36PM 40.7893 -75.4853 160° South  Level FlightAware Approximate
12:37PM 40.7265 -75.4683 190° South  Level Estimated
12:38PM 40.6627 -75.4773 186° South  Level FlightAware Approximate
12:39PM 40.5989 -75.4862 186° South  Level FlightAware Approximate
12:40PM 40.5368 -75.4650 187° South  Level Estimated
12:41PM 40.4752 -75.4883 196° South  Level FlightAware Approximate
12:42PM 40.4140 -75.4630 190° South  Level Estimated
12:42PM 40.5000 -75.5667 143° Southeast 223 257 5,000  Level Philadelphia TRACON
12:42PM 40.4833 -75.5667 180° South 222 255 5,000  Level Philadelphia TRACON
12:43PM 40.3546 -75.4946 202° Southwest  Level FlightAware Approximate
12:43PM 40.4167 -75.5667 180° South 221 254 5,000  Level Philadelphia TRACON
12:44PM 40.2951 -75.4631 180° South  Level Estimated
12:44PM 40.3500 -75.5500 169° South 221 254 5,000  Level Philadelphia TRACON
12:45PM 40.2356 -75.4316 143° Southeast  Level Estimated
12:45PM 40.3000 -75.5500 180° South 220 253 5,000  Level Philadelphia TRACON
12:46PM 40.1718 -75.4403 186° South  Level FlightAware Approximate
12:46PM 40.2333 -75.5333 169° South 216 249 5,000  Level Philadelphia TRACON
12:47PM 40.1147 -75.4021 143° Southeast  Level Estimated
12:47PM 40.1833 -75.5167 166° South 200 230 5,000  Level Philadelphia TRACON
12:48PM 40.1833 -75.4500 90° East 191 220 4,400 -540 Descending Philadelphia TRACON
12:49PM 40.1333 -75.4167 153° Southeast 198 228 4,000 -240 Descending Philadelphia TRACON
12:50PM 40.0833 -75.4000 166° South 207 238 4,000  Level Philadelphia TRACON
12:51PM 40.0333 -75.3833 166° South 209 241 4,000  Level Philadelphia TRACON
12:52PM 39.9667 -75.3667 169° South 210 242 4,000  Level Philadelphia TRACON
12:53PM 39.9167 -75.3500 166° South 206 237 4,000  Level Philadelphia TRACON
12:54PM 39.8667 -75.3333 166° South 195 224 4,000  Level Philadelphia TRACON
12:55PM 39.8167 -75.3167 166° South 189 217 4,000 -300 Level Philadelphia TRACON
12:56PM 39.7500 -75.3000 169° South 192 221 3,400 -600 Descending Philadelphia TRACON
12:57PM 39.7000 -75.2833 166° South 188 216 2,800 -720 Descending Philadelphia TRACON
12:58PM 39.7000 -75.2333 90° East 166 191 2,000 -480 Descending Philadelphia TRACON
12:59PM 39.7333 -75.2000 38° Northeast 167 192 1,900 -300 Descending Philadelphia TRACON
01:00PM 39.7833 -75.2000 360° North 164 189 1,500 -420 Descending Philadelphia TRACON
01:01PM 39.8167 -75.2000 360° North 124 143 1,100 -540 Descending Philadelphia TRACON
01:02PM 39.8500 -75.2167 339° North 133 153 500 -600 Descending Philadelphia TRACON